Time,TemperatureF,DewpointF,PressureIn,WindDirection,WindDirectionDegrees,WindSpeedMPH,WindSpeedGustMPH,Humidity,HourlyPrecipIn,Conditions,Clouds,dailyrainin,SoftwareType,DateUTC
2013-03-04 00:00:00,59.8,41.0,29.85,South,172,7.0,14.0,51,0.00,,,0.00,weatherlink.com 1.10,2013-03-04 06:00:00,
2013-03-04 00:15:00,59.3,41.0,29.84,South,176,10.0,18.0,52,0.00,,,0.00,weatherlink.com 1.10,2013-03-04 06:15:00,
2013-03-04 00:30:00,58.9,41.0,29.83,SSW,194,10.0,16.0,52,0.00,,,0.00,weatherlink.com 1.10,2013-03-04 06:30:00,
2013-03-04 00:45:00,58.7,41.0,29.84,South,187,6.0,16.0,52,0.00,,,0.00,weatherlink.com 1.10,2013-03-04 06:45:00,
2013-03-04 01:00:00,58.6,41.0,29.84,South,187,8.0,17.0,53,0.00,,,0.00,weatherlink.com 1.10,2013-03-04 07:00:00,
2013-03-04 01:15:00,58.5,41.0,29.84,South,184,8.0,13.0,53,0.00,,,0.00,weatherlink.com 1.10,2013-03-04 07:15:00,
2013-03-04 01:30:00,58.6,41.0,29.83,SSE,166,3.0,16.0,53,0.00,,,0.00,weatherlink.com 1.10,2013-03-04 07:30:00,
2013-03-04 01:45:00,58.6,41.0,29.82,South,170,4.0,15.0,53,0.00,,,0.00,weatherlink.com 1.10,2013-03-04 07:45:00,
2013-03-04 02:00:00,58.5,42.0,29.82,SSW,206,11.0,14.0,54,0.00,,,0.00,weatherlink.com 1.10,2013-03-04 08:00:00,
2013-03-04 02:15:00,58.8,42.0,29.82,SSW,195,6.0,20.0,54,0.00,,,0.00,weatherlink.com 1.10,2013-03-04 08:15:00,
2013-03-04 02:30:00,58.8,42.0,29.82,SSW,212,12.0,17.0,54,0.00,,,0.00,weatherlink.com 1.10,2013-03-04 08:30:00,
2013-03-04 02:45:00,58.8,42.0,29.81,SSW,202,9.0,18.0,54,0.00,,,0.00,weatherlink.com 1.10,2013-03-04 08:45:00,
2013-03-04 03:00:00,58.7,42.0,29.81,South,175,17.0,18.0,54,0.00,,,0.00,weatherlink.com 1.10,2013-03-04 09:00:00,
2013-03-04 03:15:00,58.5,42.0,29.80,South,181,7.0,16.0,54,0.00,,,0.00,weatherlink.com 1.10,2013-03-04 09:15:00,
2013-03-04 03:30:00,58.3,42.0,29.80,SSW,207,4.0,16.0,55,0.00,,,0.00,weatherlink.com 1.10,2013-03-04 09:30:00,
2013-03-04 03:45:00,58.0,42.0,29.79,South,191,10.0,17.0,56,0.00,,,0.00,weatherlink.com 1.10,2013-03-04 09:45:00,
2013-03-04 04:00:00,57.9,43.0,29.78,South,191,8.0,19.0,57,0.00,,,0.00,weatherlink.com 1.10,2013-03-04 10:00:00,
2013-03-04 04:15:00,57.5,42.0,29.79,SSW,196,7.0,13.0,57,0.00,,,0.00,weatherlink.com 1.10,2013-03-04 10:15:00,
2013-03-04 04:30:00,57.3,43.0,29.79,SSW,198,7.0,14.0,59,0.00,,,0.00,weatherlink.com 1.10,2013-03-04 10:30:00,
2013-03-04 04:46:00,57.4,43.0,29.78,SSE,156,12.0,17.0,60,0.00,,,0.00,weatherlink.com 1.10,2013-03-04 10:46:00,
2013-03-04 05:01:00,57.3,44.0,29.77,South,180,14.0,16.0,61,0.00,,,0.00,weatherlink.com 1.10,2013-03-04 11:01:00,
2013-03-04 05:16:00,57.1,44.0,29.78,SSW,202,5.0,13.0,62,0.00,,,0.00,weatherlink.com 1.10,2013-03-04 11:16:00,
2013-03-04 05:31:00,57.1,44.0,29.78,SSW,200,3.0,16.0,63,0.00,,,0.00,weatherlink.com 1.10,2013-03-04 11:31:00,
2013-03-04 05:46:00,56.9,45.0,29.78,SSW,198,6.0,14.0,64,0.00,,,0.00,weatherlink.com 1.10,2013-03-04 11:46:00,
2013-03-04 06:01:00,56.4,45.0,29.78,SW,215,4.0,19.0,66,0.00,,,0.00,weatherlink.com 1.10,2013-03-04 12:01:00,
2013-03-04 06:16:00,56.5,45.0,29.79,SSW,199,4.0,12.0,66,0.00,,,0.00,weatherlink.com 1.10,2013-03-04 12:16:00,
2013-03-04 06:31:00,56.3,45.0,29.80,SSW,206,3.0,9.0,67,0.00,,,0.00,weatherlink.com 1.10,2013-03-04 12:31:00,
2013-03-04 06:46:00,56.6,46.0,29.80,SW,226,5.0,12.0,67,0.00,,,0.00,weatherlink.com 1.10,2013-03-04 12:46:00,
2013-03-04 07:01:00,57.3,46.0,29.80,SW,214,4.0,8.0,65,0.00,,,0.00,weatherlink.com 1.10,2013-03-04 13:01:00,
2013-03-04 07:16:00,57.2,46.0,29.80,SSW,206,4.0,9.0,66,0.00,,,0.00,weatherlink.com 1.10,2013-03-04 13:16:00,
2013-03-04 07:31:00,56.9,46.0,29.79,South,181,3.0,7.0,66,0.00,,,0.00,weatherlink.com 1.10,2013-03-04 13:31:00,
2013-03-04 07:46:00,56.6,46.0,29.80,South,177,0.0,6.0,68,0.00,,,0.00,weatherlink.com 1.10,2013-03-04 13:46:00,
2013-03-04 08:01:00,59.1,47.0,29.80,South,177,3.0,8.0,64,0.00,,,0.00,weatherlink.com 1.10,2013-03-04 14:01:00,
2013-03-04 08:16:00,61.1,47.0,29.80,SSW,201,5.0,9.0,60,0.00,,,0.00,weatherlink.com 1.10,2013-03-04 14:16:00,
2013-03-04 08:31:00,62.4,47.0,29.80,SW,226,0.0,9.0,57,0.00,,,0.00,weatherlink.com 1.10,2013-03-04 14:31:00,
2013-03-04 08:46:00,62.1,46.0,29.80,SSW,200,2.0,10.0,57,0.00,,,0.00,weatherlink.com 1.10,2013-03-04 14:46:00,
2013-03-04 09:01:00,64.6,47.0,29.81,SW,226,0.0,10.0,54,0.00,,,0.00,weatherlink.com 1.10,2013-03-04 15:01:00,
2013-03-04 09:16:00,66.6,47.0,29.80,WNW,282,2.0,10.0,50,0.00,,,0.00,weatherlink.com 1.10,2013-03-04 15:16:00,
2013-03-04 09:31:00,68.5,47.0,29.81,WSW,241,5.0,13.0,46,0.00,,,0.00,weatherlink.com 1.10,2013-03-04 15:31:00,
2013-03-04 09:46:00,70.0,47.0,29.80,SW,228,2.0,14.0,44,0.00,,,0.00,weatherlink.com 1.10,2013-03-04 15:46:00,
2013-03-04 10:01:00,71.5,46.0,29.80,SSW,197,5.0,13.0,40,0.00,,,0.00,weatherlink.com 1.10,2013-03-04 16:01:00,
2013-03-04 10:16:00,72.9,46.0,29.79,SW,231,4.0,14.0,38,0.00,,,0.00,weatherlink.com 1.10,2013-03-04 16:16:00,
2013-03-04 10:31:00,73.9,46.0,29.79,South,181,9.0,14.0,37,0.00,,,0.00,weatherlink.com 1.10,2013-03-04 16:31:00,
2013-03-04 10:46:00,75.7,46.0,29.77,South,187,9.0,13.0,35,0.00,,,0.00,weatherlink.com 1.10,2013-03-04 16:46:00,
2013-03-04 11:01:00,77.4,44.0,29.77,SW,233,4.0,14.0,30,0.00,,,0.00,weatherlink.com 1.10,2013-03-04 17:01:00,
2013-03-04 11:16:00,78.3,43.0,29.78,West,278,7.0,14.0,29,0.00,,,0.00,weatherlink.com 1.10,2013-03-04 17:16:00,
2013-03-04 11:32:00,79.2,44.0,29.77,SW,221,7.0,13.0,29,0.00,,,0.00,weatherlink.com 1.10,2013-03-04 17:32:00,
2013-03-04 11:47:00,79.7,46.0,29.77,South,185,5.0,15.0,30,0.00,,,0.00,weatherlink.com 1.10,2013-03-04 17:47:00,
2013-03-04 12:02:00,79.3,43.0,29.76,SSW,211,5.0,10.0,28,0.00,,,0.00,weatherlink.com 1.10,2013-03-04 18:02:00,
2013-03-04 12:17:00,81.8,44.0,29.75,WSW,245,8.0,12.0,26,0.00,,,0.00,weatherlink.com 1.10,2013-03-04 18:17:00,
2013-03-04 12:32:00,82.3,45.0,29.74,SW,222,2.0,16.0,27,0.00,,,0.00,weatherlink.com 1.10,2013-03-04 18:32:00,
2013-03-04 12:47:00,82.2,43.0,29.72,SW,221,15.0,15.0,25,0.00,,,0.00,weatherlink.com 1.10,2013-03-04 18:47:00,
2013-03-04 13:02:00,82.0,42.0,29.72,WNW,282,5.0,14.0,24,0.00,,,0.00,weatherlink.com 1.10,2013-03-04 19:02:00,
2013-03-04 13:17:00,82.1,43.0,29.71,SW,235,7.0,11.0,25,0.00,,,0.00,weatherlink.com 1.10,2013-03-04 19:17:00,
2013-03-04 13:32:00,82.6,44.0,29.71,SSW,196,2.0,10.0,26,0.00,,,0.00,weatherlink.com 1.10,2013-03-04 19:32:00,
2013-03-04 13:47:00,82.5,42.0,29.70,South,188,8.0,10.0,24,0.00,,,0.00,weatherlink.com 1.10,2013-03-04 19:47:00,
2013-03-04 14:02:00,85.1,40.0,29.69,WSW,251,6.0,12.0,20,0.00,,,0.00,weatherlink.com 1.10,2013-03-04 20:02:00,
2013-03-04 14:17:00,86.1,41.0,29.68,SW,224,7.0,16.0,20,0.00,,,0.00,weatherlink.com 1.10,2013-03-04 20:17:00,
2013-03-04 14:32:00,85.8,40.0,29.67,South,188,6.0,11.0,20,0.00,,,0.00,weatherlink.com 1.10,2013-03-04 20:32:00,
2013-03-04 14:47:00,86.9,37.0,29.66,SW,233,6.0,13.0,17,0.00,,,0.00,weatherlink.com 1.10,2013-03-04 20:47:00,
2013-03-04 15:02:00,87.1,37.0,29.66,SSW,208,6.0,14.0,17,0.00,,,0.00,weatherlink.com 1.10,2013-03-04 21:02:00,
2013-03-04 15:17:00,87.9,36.0,29.66,SW,225,4.0,13.0,16,0.00,,,0.00,weatherlink.com 1.10,2013-03-04 21:17:00,
2013-03-04 15:32:00,85.9,36.0,29.66,WNW,303,3.0,8.0,17,0.00,,,0.00,weatherlink.com 1.10,2013-03-04 21:32:00,
2013-03-04 15:47:00,86.1,36.0,29.65,WSW,243,4.0,7.0,17,0.00,,,0.00,weatherlink.com 1.10,2013-03-04 21:47:00,
2013-03-04 16:02:00,85.8,38.0,29.65,WSW,237,3.0,7.0,18,0.00,,,0.00,weatherlink.com 1.10,2013-03-04 22:02:00,
2013-03-04 16:17:00,85.4,40.0,29.64,SW,225,2.0,5.0,20,0.00,,,0.00,weatherlink.com 1.10,2013-03-04 22:17:00,
2013-03-04 16:32:00,84.4,36.0,29.64,SW,235,1.0,5.0,18,0.00,,,0.00,weatherlink.com 1.10,2013-03-04 22:32:00,
2013-03-04 16:47:00,85.3,39.0,29.64,SW,234,3.0,5.0,19,0.00,,,0.00,weatherlink.com 1.10,2013-03-04 22:47:00,
2013-03-04 17:02:00,84.9,32.0,29.64,WSW,249,3.0,7.0,15,0.00,,,0.00,weatherlink.com 1.10,2013-03-04 23:02:00,
2013-03-04 17:17:00,83.3,31.0,29.64,SW,233,0.0,5.0,15,0.00,,,0.00,weatherlink.com 1.10,2013-03-04 23:17:00,
2013-03-04 17:32:00,82.4,30.0,29.65,WSW,256,3.0,6.0,15,0.00,,,0.00,weatherlink.com 1.10,2013-03-04 23:32:00,
2013-03-04 17:47:00,81.0,27.0,29.65,West,268,0.0,8.0,14,0.00,,,0.00,weatherlink.com 1.10,2013-03-04 23:47:00,
2013-03-04 18:02:00,79.3,26.0,29.65,West,264,0.0,4.0,14,0.00,,,0.00,weatherlink.com 1.10,2013-03-05 00:02:00,
2013-03-04 18:17:00,77.3,23.0,29.65,West,264,1.0,2.0,13,0.00,,,0.00,weatherlink.com 1.10,2013-03-05 00:17:00,
2013-03-04 18:32:00,75.3,27.0,29.65,West,264,2.0,3.0,17,0.00,,,0.00,weatherlink.com 1.10,2013-03-05 00:32:00,
2013-03-04 18:47:00,74.5,24.0,29.66,West,264,1.0,4.0,15,0.00,,,0.00,weatherlink.com 1.10,2013-03-05 00:47:00,
2013-03-04 19:02:00,74.4,25.0,29.66,WSW,251,4.0,5.0,16,0.00,,,0.00,weatherlink.com 1.10,2013-03-05 01:02:00,
2013-03-04 19:17:00,74.4,25.0,29.66,SSW,201,8.0,9.0,16,0.00,,,0.00,weatherlink.com 1.10,2013-03-05 01:17:00,
2013-03-04 19:32:00,73.6,27.0,29.66,SSW,213,4.0,8.0,18,0.00,,,0.00,weatherlink.com 1.10,2013-03-05 01:32:00,
2013-03-04 19:47:00,74.3,27.0,29.66,SSW,196,7.0,7.0,17,0.00,,,0.00,weatherlink.com 1.10,2013-03-05 01:47:00,
2013-03-04 20:02:00,72.1,29.0,29.67,SSW,212,4.0,6.0,20,0.00,,,0.00,weatherlink.com 1.10,2013-03-05 02:02:00,
2013-03-04 20:17:00,70.3,30.0,29.68,SSW,213,5.0,5.0,22,0.00,,,0.00,weatherlink.com 1.10,2013-03-05 02:17:00,
2013-03-04 20:32:00,69.8,29.0,29.68,SW,218,4.0,7.0,22,0.00,,,0.00,weatherlink.com 1.10,2013-03-05 02:32:00,
2013-03-04 20:47:00,69.8,31.0,29.68,SSW,208,4.0,7.0,24,0.00,,,0.00,weatherlink.com 1.10,2013-03-05 02:47:00,
2013-03-04 21:02:00,68.5,34.0,29.68,SSW,210,1.0,5.0,28,0.00,,,0.00,weatherlink.com 1.10,2013-03-05 03:02:00,
2013-03-04 21:17:00,67.7,36.0,29.68,SSW,213,0.0,6.0,31,0.00,,,0.00,weatherlink.com 1.10,2013-03-05 03:17:00,
2013-03-04 21:32:00,66.7,37.0,29.68,SSW,213,2.0,4.0,33,0.00,,,0.00,weatherlink.com 1.10,2013-03-05 03:32:00,
2013-03-04 21:47:00,67.1,38.0,29.68,SSW,208,0.0,4.0,35,0.00,,,0.00,weatherlink.com 1.10,2013-03-05 03:47:00,
2013-03-04 22:03:00,64.5,36.0,29.68,SSW,208,0.0,1.0,35,0.00,,,0.00,weatherlink.com 1.10,2013-03-05 04:03:00,
2013-03-04 22:18:00,67.2,41.0,29.69,SSW,193,5.0,9.0,38,0.00,,,0.00,weatherlink.com 1.10,2013-03-05 04:18:00,
2013-03-04 22:33:00,68.6,41.0,29.69,SSW,210,4.0,8.0,37,0.00,,,0.00,weatherlink.com 1.10,2013-03-05 04:33:00,
2013-03-04 22:48:00,68.6,41.0,29.69,SW,220,6.0,7.0,37,0.00,,,0.00,weatherlink.com 1.10,2013-03-05 04:48:00,
2013-03-04 23:03:00,70.2,41.0,29.68,SW,216,4.0,9.0,35,0.00,,,0.00,weatherlink.com 1.10,2013-03-05 05:03:00,
2013-03-04 23:18:00,70.0,40.0,29.68,WSW,245,1.0,8.0,34,0.00,,,0.00,weatherlink.com 1.10,2013-03-05 05:18:00,
2013-03-04 23:33:00,67.1,40.0,29.69,SW,235,0.0,2.0,37,0.00,,,0.00,weatherlink.com 1.10,2013-03-05 05:33:00,
2013-03-04 23:48:00,63.5,40.0,29.70,South,176,2.0,5.0,42,0.00,,,0.00,weatherlink.com 1.10,2013-03-05 05:48:00,